Time;durP1;ratioP1;P1;durP2;ratioP2;P2;SDS_P1;SDS_P2;PMS_P1;PMS_P2;Temp;Humidity;BMP_temperature;BMP_pressure;BME280_temperature;BME280_humidity;BME280_pressure;Samples;Min_cycle;Max_cycle;Signal;HPM_P1;HPM_P2
2023/06/21 00:00:48;;;;;;;22.17;19.73;;;;;;;;;;5133699;27;20039;-69
2023/06/21 00:03:16;;;;;;;23.88;20.77;;;;;;;;;;5122052;27;20038;-69
2023/06/21 00:05:42;;;;;;;22.35;20.08;;;;;;;;;;5145298;27;20073;-69
2023/06/21 00:08:08;;;;;;;22.67;20.25;;;;;;;;;;5120614;27;20042;-69
2023/06/21 00:10:35;;;;;;;24.63;22.13;;;;;;;;;;5147657;27;20043;-69
2023/06/21 00:13:01;;;;;;;24.02;21.27;;;;;;;;;;5105226;27;20066;-69
2023/06/21 00:15:27;;;;;;;23.63;20.58;;;;;;;;;;5125750;27;20487;-69
2023/06/21 00:17:53;;;;;;;27.92;21.77;;;;;;;;;;5118380;27;20102;-69
2023/06/21 00:20:20;;;;;;;25.42;21.70;;;;;;;;;;5142396;27;20121;-69
2023/06/21 00:22:47;;;;;;;26.52;22.17;;;;;;;;;;5134231;27;20045;-69
2023/06/21 00:25:14;;;;;;;23.85;21.30;;;;;;;;;;5131976;27;20452;-69
2023/06/21 00:27:44;;;;;;;23.60;21.05;;;;;;;;;;5139884;27;20405;-68
2023/06/21 00:30:10;;;;;;;24.40;20.98;;;;;;;;;;5112172;27;20517;-69
2023/06/21 00:32:38;;;;;;;26.23;21.38;;;;;;;;;;5132773;27;20205;-69
2023/06/21 00:35:05;;;;;;;25.63;22.63;;;;;;;;;;5110179;27;20062;-69
2023/06/21 00:37:31;;;;;;;28.92;23.42;;;;;;;;;;5132041;27;20049;-68
2023/06/21 00:39:57;;;;;;;31.38;24.30;;;;;;;;;;5137592;27;20091;-69
2023/06/21 00:42:24;;;;;;;31.27;24.25;;;;;;;;;;5121249;27;20027;-69
2023/06/21 00:44:50;;;;;;;29.38;23.17;;;;;;;;;;5151006;27;20050;-69
2023/06/21 00:47:18;;;;;;;38.53;27.65;;;;;;;;;;5145888;27;20080;-69
2023/06/21 00:49:44;;;;;;;38.78;27.60;;;;;;;;;;5129522;27;20039;-69
2023/06/21 00:52:10;;;;;;;38.40;26.55;;;;;;;;;;5147754;27;20031;-69
2023/06/21 00:54:37;;;;;;;40.42;28.95;;;;;;;;;;5149362;27;20073;-69
2023/06/21 00:57:04;;;;;;;35.25;27.30;;;;;;;;;;5148578;27;20066;-69
2023/06/21 00:59:31;;;;;;;37.05;28.27;;;;;;;;;;5125209;27;20058;-69
2023/06/21 01:01:58;;;;;;;40.17;28.65;;;;;;;;;;5140163;27;20475;-69
2023/06/21 01:04:28;;;;;;;39.72;29.05;;;;;;;;;;5147618;27;20138;-69
2023/06/21 01:07:13;;;;;;;38.25;27.58;;;;;;;;;;5133243;27;20042;-69
2023/06/21 01:09:55;;;;;;;39.58;29.02;;;;;;;;;;5149146;27;20734;-69
2023/06/21 01:12:36;;;;;;;37.75;26.75;;;;;;;;;;5128756;27;20414;-69
2023/06/21 01:15:03;;;;;;;36.03;28.05;;;;;;;;;;5144274;27;20129;-69
2023/06/21 01:17:34;;;;;;;40.05;29.35;;;;;;;;;;5164260;27;20133;-69
2023/06/21 01:20:01;;;;;;;36.05;27.85;;;;;;;;;;5122134;27;20603;-68
2023/06/21 01:22:41;;;;;;;37.08;29.02;;;;;;;;;;5125903;27;20112;-69
2023/06/21 01:25:27;;;;;;;35.30;26.85;;;;;;;;;;5125364;27;20046;-69
2023/06/21 01:27:57;;;;;;;37.95;28.40;;;;;;;;;;5154714;27;20073;-68
2023/06/21 01:30:26;;;;;;;40.97;29.15;;;;;;;;;;5141609;27;20047;-69
2023/06/21 01:32:53;;;;;;;37.92;28.52;;;;;;;;;;5141331;27;20046;-69
2023/06/21 01:35:20;;;;;;;39.22;28.85;;;;;;;;;;5152172;27;20050;-69
2023/06/21 01:37:49;;;;;;;37.75;29.40;;;;;;;;;;5139569;27;20385;-69
2023/06/21 01:40:15;;;;;;;35.97;28.33;;;;;;;;;;5156875;27;20381;-69
2023/06/21 01:42:42;;;;;;;37.15;29.30;;;;;;;;;;5120241;27;20047;-69
2023/06/21 01:45:09;;;;;;;36.03;29.50;;;;;;;;;;5128144;27;20041;-68
2023/06/21 01:47:36;;;;;;;34.63;28.63;;;;;;;;;;5124036;27;20126;-69
2023/06/21 01:50:03;;;;;;;38.47;30.02;;;;;;;;;;5138061;27;20095;-69
2023/06/21 01:52:30;;;;;;;37.60;30.05;;;;;;;;;;5122895;27;20043;-68
2023/06/21 01:54:57;;;;;;;39.42;30.67;;;;;;;;;;5120892;27;20510;-69
2023/06/21 01:57:23;;;;;;;41.22;31.45;;;;;;;;;;5123818;27;20124;-68
2023/06/21 01:59:50;;;;;;;38.47;30.90;;;;;;;;;;5113287;27;20043;-69
2023/06/21 02:02:17;;;;;;;39.47;30.67;;;;;;;;;;5130721;27;20813;-69
2023/06/21 02:04:44;;;;;;;39.80;30.08;;;;;;;;;;5139124;27;20039;-68
2023/06/21 02:07:13;;;;;;;37.22;31.52;;;;;;;;;;5137247;27;20125;-68
2023/06/21 02:09:40;;;;;;;40.45;31.33;;;;;;;;;;5145477;27;20396;-69
2023/06/21 02:12:07;;;;;;;41.50;31.65;;;;;;;;;;5147958;27;20031;-69
2023/06/21 02:14:33;;;;;;;43.60;32.95;;;;;;;;;;5135815;27;20047;-68
2023/06/21 02:16:59;;;;;;;39.70;31.60;;;;;;;;;;5131874;27;20450;-69
2023/06/21 02:19:25;;;;;;;42.15;31.95;;;;;;;;;;5118137;27;20088;-69
2023/06/21 02:21:52;;;;;;;37.58;31.23;;;;;;;;;;5149289;27;20062;-69
2023/06/21 02:24:18;;;;;;;42.92;32.70;;;;;;;;;;5125636;27;20039;-69
2023/06/21 02:26:44;;;;;;;39.08;31.63;;;;;;;;;;5151149;27;20520;-68
2023/06/21 02:29:10;;;;;;;41.25;31.90;;;;;;;;;;5131414;27;20043;-69
2023/06/21 02:31:36;;;;;;;42.85;32.10;;;;;;;;;;5140647;27;20043;-68
2023/06/21 02:34:03;;;;;;;40.10;31.67;;;;;;;;;;5142987;27;20062;-69
2023/06/21 02:36:29;;;;;;;41.53;31.10;;;;;;;;;;5143904;27;20114;-68
2023/06/21 02:38:55;;;;;;;47.85;34.20;;;;;;;;;;5140842;27;20047;-69
2023/06/21 02:41:22;;;;;;;43.60;33.03;;;;;;;;;;5113908;27;20043;-69
2023/06/21 02:43:49;;;;;;;47.78;32.83;;;;;;;;;;5144649;27;20070;-69
2023/06/21 02:46:15;;;;;;;46.42;33.08;;;;;;;;;;5146871;27;20517;-69
2023/06/21 02:48:41;;;;;;;42.08;33.15;;;;;;;;;;5129750;27;20117;-69
2023/06/21 02:51:07;;;;;;;46.50;33.17;;;;;;;;;;5149644;27;20041;-69
2023/06/21 02:53:34;;;;;;;47.25;31.58;;;;;;;;;;5129386;27;20131;-69
2023/06/21 02:56:00;;;;;;;43.17;31.80;;;;;;;;;;5141478;27;20039;-69
2023/06/21 02:58:26;;;;;;;50.35;32.65;;;;;;;;;;5131977;27;20486;-68
2023/06/21 03:00:52;;;;;;;44.72;29.67;;;;;;;;;;5137397;27;20117;-69
2023/06/21 03:03:18;;;;;;;44.95;30.67;;;;;;;;;;5152895;27;20031;-69
2023/06/21 03:05:44;;;;;;;46.38;30.45;;;;;;;;;;5120079;27;20238;-68
2023/06/21 03:08:11;;;;;;;44.53;30.33;;;;;;;;;;5119002;27;20043;-68
2023/06/21 03:10:39;;;;;;;41.60;29.77;;;;;;;;;;5120795;27;20096;-69
2023/06/21 03:13:05;;;;;;;40.33;29.15;;;;;;;;;;5149978;27;20079;-69
2023/06/21 03:15:31;;;;;;;39.03;26.27;;;;;;;;;;5120072;27;20050;-69
2023/06/21 03:17:57;;;;;;;40.83;27.60;;;;;;;;;;5124588;27;20121;-69
2023/06/21 03:20:26;;;;;;;39.00;27.00;;;;;;;;;;5123106;27;20059;-69
2023/06/21 03:22:52;;;;;;;36.97;24.48;;;;;;;;;;5142819;27;20078;-69
2023/06/21 03:25:18;;;;;;;39.42;25.67;;;;;;;;;;5122130;27;20055;-70
2023/06/21 03:27:45;;;;;;;42.15;26.08;;;;;;;;;;5146786;27;20103;-69
2023/06/21 03:30:11;;;;;;;37.42;25.33;;;;;;;;;;5138827;27;20103;-69
2023/06/21 03:32:48;;;;;;;33.90;24.02;;;;;;;;;;5115967;27;20537;-68
2023/06/21 03:35:14;;;;;;;39.70;23.77;;;;;;;;;;5115071;27;20494;-71
2023/06/21 03:37:41;;;;;;;34.65;23.70;;;;;;;;;;5127002;27;20042;-68
2023/06/21 03:40:11;;;;;;;41.30;24.88;;;;;;;;;;5116190;27;20053;-68
2023/06/21 03:42:38;;;;;;;38.63;24.00;;;;;;;;;;5139066;27;20115;-68
2023/06/21 03:45:04;;;;;;;37.88;25.10;;;;;;;;;;5139329;27;20043;-68
2023/06/21 03:47:30;;;;;;;45.58;24.35;;;;;;;;;;5123378;27;20043;-69
2023/06/21 03:49:57;;;;;;;34.05;23.33;;;;;;;;;;5125258;27;20104;-69
2023/06/21 03:52:24;;;;;;;41.78;24.23;;;;;;;;;;5143856;27;20042;-69
2023/06/21 03:54:52;;;;;;;36.35;24.45;;;;;;;;;;5142999;27;20043;-69
2023/06/21 03:57:18;;;;;;;34.13;22.75;;;;;;;;;;5142101;27;20386;-69
2023/06/21 03:59:44;;;;;;;35.85;23.50;;;;;;;;;;5120639;27;20116;-69
2023/06/21 04:02:10;;;;;;;35.88;23.52;;;;;;;;;;5144819;27;20035;-69
2023/06/21 04:04:38;;;;;;;38.78;24.48;;;;;;;;;;5117701;27;20367;-69
2023/06/21 04:07:05;;;;;;;37.60;23.00;;;;;;;;;;5132443;27;20039;-69
2023/06/21 04:09:31;;;;;;;33.22;22.45;;;;;;;;;;5114943;27;20118;-69
2023/06/21 04:11:57;;;;;;;32.40;21.20;;;;;;;;;;5116457;27;20108;-69
2023/06/21 04:14:24;;;;;;;40.40;22.75;;;;;;;;;;5137640;27;20054;-69
2023/06/21 04:16:50;;;;;;;34.10;21.17;;;;;;;;;;5141103;27;20130;-69
2023/06/21 04:19:16;;;;;;;35.40;21.95;;;;;;;;;;5146800;27;20036;-69
2023/06/21 04:21:42;;;;;;;32.40;21.33;;;;;;;;;;5128036;27;20047;-69
2023/06/21 04:24:08;;;;;;;33.17;21.05;;;;;;;;;;5114483;27;20050;-69
2023/06/21 04:26:34;;;;;;;34.17;21.58;;;;;;;;;;5132636;27;20055;-70
2023/06/21 04:29:01;;;;;;;31.73;19.55;;;;;;;;;;5125574;27;20051;-69
2023/06/21 04:31:28;;;;;;;34.40;20.13;;;;;;;;;;5129660;27;20039;-70
2023/06/21 04:33:54;;;;;;;32.30;17.95;;;;;;;;;;5150423;27;20070;-69
2023/06/21 04:36:21;;;;;;;31.10;17.15;;;;;;;;;;5130945;27;20039;-69
2023/06/21 04:38:50;;;;;;;23.88;16.42;;;;;;;;;;5134967;27;20125;-66
2023/06/21 04:41:16;;;;;;;29.20;16.90;;;;;;;;;;5139738;27;20027;-69
2023/06/21 04:43:43;;;;;;;28.30;17.17;;;;;;;;;;5141345;27;20045;-68
2023/06/21 04:46:09;;;;;;;25.33;16.17;;;;;;;;;;5132321;27;20030;-68
2023/06/21 04:48:37;;;;;;;27.05;15.38;;;;;;;;;;5143227;27;20092;-67
2023/06/21 04:51:03;;;;;;;23.80;14.88;;;;;;;;;;5147241;27;20042;-69
2023/06/21 04:53:30;;;;;;;27.30;15.52;;;;;;;;;;5132441;27;20156;-68
2023/06/21 04:55:57;;;;;;;22.83;15.13;;;;;;;;;;5131630;27;20066;-69
2023/06/21 04:58:24;;;;;;;21.58;13.95;;;;;;;;;;5134076;27;20047;-70
2023/06/21 05:00:50;;;;;;;27.80;14.15;;;;;;;;;;5113979;27;20114;-69
2023/06/21 05:03:16;;;;;;;22.63;13.77;;;;;;;;;;5140641;27;20113;-69
2023/06/21 05:05:42;;;;;;;22.75;13.35;;;;;;;;;;5114570;27;20047;-68
2023/06/21 05:08:09;;;;;;;26.55;14.20;;;;;;;;;;5119205;27;20371;-70
2023/06/21 05:10:35;;;;;;;23.27;13.85;;;;;;;;;;5113460;28;20049;-69
2023/06/21 05:13:01;;;;;;;24.60;15.15;;;;;;;;;;5121461;27;20119;-68
2023/06/21 05:15:27;;;;;;;24.90;15.63;;;;;;;;;;5132358;27;20042;-69
2023/06/21 05:17:54;;;;;;;24.55;14.00;;;;;;;;;;5131622;27;20043;-68
2023/06/21 05:20:20;;;;;;;24.25;15.23;;;;;;;;;;5137571;27;20062;-68
2023/06/21 05:22:47;;;;;;;20.27;14.45;;;;;;;;;;5140808;27;20213;-67
2023/06/21 05:25:13;;;;;;;27.35;15.05;;;;;;;;;;5147346;27;20046;-68
2023/06/21 05:27:39;;;;;;;28.98;17.00;;;;;;;;;;5118503;27;20176;-68
2023/06/21 05:30:06;;;;;;;28.08;15.32;;;;;;;;;;5114422;28;20091;-68
2023/06/21 05:32:32;;;;;;;26.02;16.30;;;;;;;;;;5117605;28;20048;-68
2023/06/21 05:34:58;;;;;;;25.00;15.57;;;;;;;;;;5121346;28;20035;-68
2023/06/21 05:37:24;;;;;;;23.77;16.00;;;;;;;;;;5121680;27;20028;-68
2023/06/21 05:39:51;;;;;;;27.02;17.10;;;;;;;;;;5119606;27;20050;-68
2023/06/21 05:42:17;;;;;;;28.17;17.73;;;;;;;;;;5115713;27;20378;-68
2023/06/21 05:44:43;;;;;;;31.80;17.67;;;;;;;;;;5126554;27;20038;-68
2023/06/21 05:47:09;;;;;;;28.52;18.27;;;;;;;;;;5133090;27;20130;-68
2023/06/21 05:49:35;;;;;;;29.45;18.15;;;;;;;;;;5129495;27;20505;-68
2023/06/21 05:52:01;;;;;;;31.30;18.60;;;;;;;;;;5135269;27;20444;-68
2023/06/21 05:54:28;;;;;;;26.25;18.42;;;;;;;;;;5134962;27;20058;-68
2023/06/21 05:56:55;;;;;;;29.52;19.70;;;;;;;;;;5134383;27;20127;-68
2023/06/21 05:59:21;;;;;;;30.13;19.70;;;;;;;;;;5125445;27;20097;-68
2023/06/21 06:01:47;;;;;;;29.05;19.08;;;;;;;;;;5130225;27;20046;-68
2023/06/21 06:04:13;;;;;;;27.70;18.65;;;;;;;;;;5115050;27;20035;-68
2023/06/21 06:06:40;;;;;;;25.05;18.45;;;;;;;;;;5127086;27;20043;-68
2023/06/21 06:09:07;;;;;;;28.17;17.77;;;;;;;;;;5134319;27;20035;-68
2023/06/21 06:11:34;;;;;;;24.63;16.95;;;;;;;;;;5132757;27;20039;-68
2023/06/21 06:14:00;;;;;;;21.58;15.80;;;;;;;;;;5128559;27;20118;-68
2023/06/21 06:16:26;;;;;;;22.58;16.30;;;;;;;;;;5125839;27;20040;-68
2023/06/21 06:18:54;;;;;;;23.65;14.38;;;;;;;;;;5120378;27;20122;-68
2023/06/21 06:21:21;;;;;;;19.00;13.70;;;;;;;;;;5112546;28;20092;-68
2023/06/21 06:23:52;;;;;;;18.52;13.32;;;;;;;;;;5122517;27;20090;-68
2023/06/21 06:26:21;;;;;;;19.48;12.60;;;;;;;;;;5121222;27;20043;-68
2023/06/21 06:28:47;;;;;;;15.73;12.23;;;;;;;;;;5127753;27;20105;-68
2023/06/21 06:31:13;;;;;;;18.60;12.75;;;;;;;;;;5132229;27;20122;-68
2023/06/21 06:33:40;;;;;;;17.60;12.65;;;;;;;;;;5131749;27;20495;-68
2023/06/21 06:36:06;;;;;;;20.23;12.68;;;;;;;;;;5135014;27;20089;-68
2023/06/21 06:38:32;;;;;;;17.33;11.68;;;;;;;;;;5133621;27;20070;-68
2023/06/21 06:40:59;;;;;;;22.08;12.10;;;;;;;;;;5133052;27;20367;-68
2023/06/21 06:43:25;;;;;;;19.73;11.30;;;;;;;;;;5113223;28;20592;-67
2023/06/21 06:45:51;;;;;;;16.92;10.05;;;;;;;;;;5124944;27;20395;-67
2023/06/21 06:48:18;;;;;;;20.60;10.25;;;;;;;;;;5134027;27;20067;-67
2023/06/21 06:50:44;;;;;;;14.85;10.68;;;;;;;;;;5133933;27;20054;-67
2023/06/21 06:53:10;;;;;;;15.80;11.93;;;;;;;;;;5123472;27;20395;-68
2023/06/21 06:55:36;;;;;;;20.13;11.15;;;;;;;;;;5120983;27;20177;-69
2023/06/21 06:58:02;;;;;;;16.88;11.50;;;;;;;;;;5127546;27;20104;-69
2023/06/21 07:00:29;;;;;;;15.98;9.95;;;;;;;;;;5128702;27;20054;-68
2023/06/21 07:02:56;;;;;;;17.13;10.40;;;;;;;;;;5133819;27;20088;-68
2023/06/21 07:05:25;;;;;;;15.23;9.95;;;;;;;;;;5129476;27;20051;-69
2023/06/21 07:07:52;;;;;;;15.30;10.23;;;;;;;;;;5134301;27;20039;-68
2023/06/21 07:10:19;;;;;;;15.57;10.65;;;;;;;;;;5132295;27;20567;-68
2023/06/21 07:12:45;;;;;;;18.17;11.57;;;;;;;;;;5134411;27;20054;-68
2023/06/21 07:15:11;;;;;;;19.02;12.13;;;;;;;;;;5123022;27;20043;-69
2023/06/21 07:17:37;;;;;;;12.38;8.63;;;;;;;;;;5121509;27;20035;-69
2023/06/21 07:20:06;;;;;;;13.02;9.18;;;;;;;;;;5133106;27;20047;-69
2023/06/21 07:22:33;;;;;;;14.00;10.63;;;;;;;;;;5133458;27;20045;-66
2023/06/21 07:24:59;;;;;;;14.75;9.68;;;;;;;;;;5134206;27;20043;-66
2023/06/21 07:27:29;;;;;;;12.95;9.18;;;;;;;;;;5129158;27;20133;-67
2023/06/21 07:29:55;;;;;;;15.95;9.77;;;;;;;;;;5127507;27;20065;-66
2023/06/21 07:32:21;;;;;;;12.10;9.50;;;;;;;;;;5154640;27;20481;-66
2023/06/21 07:34:48;;;;;;;14.05;8.23;;;;;;;;;;5149771;27;20035;-66
2023/06/21 07:37:14;;;;;;;15.15;8.25;;;;;;;;;;5144084;27;20056;-74
2023/06/21 07:39:40;;;;;;;13.05;8.38;;;;;;;;;;5141472;27;20046;-68
2023/06/21 07:42:08;;;;;;;12.13;8.45;;;;;;;;;;5126535;27;20049;-68
2023/06/21 07:44:35;;;;;;;12.45;7.90;;;;;;;;;;5132115;27;20062;-68
2023/06/21 07:47:01;;;;;;;10.80;8.18;;;;;;;;;;5136091;27;20041;-68
2023/06/21 07:49:27;;;;;;;15.30;8.25;;;;;;;;;;5135769;27;20075;-68
2023/06/21 07:51:53;;;;;;;12.88;7.68;;;;;;;;;;5148988;27;20221;-68
2023/06/21 07:54:19;;;;;;;12.00;8.55;;;;;;;;;;5135445;27;20071;-68
2023/06/21 07:56:48;;;;;;;11.00;7.65;;;;;;;;;;5152823;27;20099;-80
2023/06/21 07:59:15;;;;;;;22.98;8.52;;;;;;;;;;5133885;27;20039;-85
2023/06/21 08:01:41;;;;;;;15.13;7.80;;;;;;;;;;5126328;27;20074;-83
2023/06/21 08:04:07;;;;;;;13.00;7.50;;;;;;;;;;5130697;27;20038;-79
2023/06/21 08:06:33;;;;;;;10.43;7.47;;;;;;;;;;5149630;27;20132;-69
2023/06/21 08:08:59;;;;;;;8.43;6.32;;;;;;;;;;5153479;27;20044;-68
2023/06/21 08:11:26;;;;;;;9.85;6.35;;;;;;;;;;5147918;27;20061;-77
2023/06/21 08:13:52;;;;;;;13.70;6.93;;;;;;;;;;5149889;27;20531;-68
2023/06/21 08:16:18;;;;;;;11.68;6.80;;;;;;;;;;5152135;27;20358;-68
2023/06/21 08:18:44;;;;;;;10.32;6.95;;;;;;;;;;5129346;27;20743;-67
2023/06/21 08:21:10;;;;;;;12.15;6.40;;;;;;;;;;5147788;27;20212;-68
2023/06/21 08:23:36;;;;;;;13.48;7.78;;;;;;;;;;5155697;27;20031;-69
2023/06/21 08:26:03;;;;;;;10.35;7.15;;;;;;;;;;5152959;27;20042;-68
2023/06/21 08:28:29;;;;;;;11.75;6.75;;;;;;;;;;5153343;27;20504;-69
2023/06/21 08:30:55;;;;;;;12.57;8.57;;;;;;;;;;5153243;27;20418;-69
2023/06/21 08:33:23;;;;;;;9.23;7.32;;;;;;;;;;5153242;27;20065;-69
2023/06/21 08:35:49;;;;;;;11.80;8.23;;;;;;;;;;5136798;27;20150;-68
2023/06/21 08:38:15;;;;;;;11.48;7.63;;;;;;;;;;5158237;27;20058;-68
2023/06/21 08:40:42;;;;;;;21.42;9.10;;;;;;;;;;5138941;27;20479;-68
2023/06/21 08:43:09;;;;;;;12.52;7.47;;;;;;;;;;5127924;27;20062;-67
2023/06/21 08:45:35;;;;;;;12.13;7.97;;;;;;;;;;5135134;27;20465;-67
2023/06/21 08:48:01;;;;;;;12.43;8.18;;;;;;;;;;5133980;27;20035;-67
2023/06/21 08:50:29;;;;;;;10.20;7.47;;;;;;;;;;5123506;27;20064;-79
2023/06/21 08:52:55;;;;;;;13.38;8.25;;;;;;;;;;5151417;27;20540;-67
2023/06/21 08:55:23;;;;;;;11.07;7.57;;;;;;;;;;5139273;27;20095;-67
2023/06/21 08:57:52;;;;;;;11.10;7.53;;;;;;;;;;5151767;27;20138;-67
2023/06/21 09:00:22;;;;;;;9.27;6.97;;;;;;;;;;5151979;27;20073;-67
2023/06/21 09:03:01;;;;;;;13.10;7.00;;;;;;;;;;5127648;27;20335;-67
2023/06/21 09:05:33;;;;;;;12.50;6.95;;;;;;;;;;5134852;27;20538;-67
2023/06/21 09:08:00;;;;;;;10.53;7.80;;;;;;;;;;5113227;28;20401;-67
2023/06/21 09:10:27;;;;;;;12.90;7.72;;;;;;;;;;5151841;27;20062;-67
2023/06/21 09:12:54;;;;;;;11.52;7.80;;;;;;;;;;5149716;27;20092;-67
2023/06/21 09:15:20;;;;;;;11.23;7.75;;;;;;;;;;5146702;27;22147;-67
2023/06/21 09:17:47;;;;;;;8.40;7.32;;;;;;;;;;5146131;27;20073;-67
2023/06/21 09:20:14;;;;;;;12.15;8.13;;;;;;;;;;5149566;27;20389;-67
2023/06/21 09:22:41;;;;;;;13.10;8.10;;;;;;;;;;5123835;27;20486;-66
2023/06/21 09:25:08;;;;;;;12.93;8.93;;;;;;;;;;5152365;27;20108;-67
2023/06/21 09:27:34;;;;;;;12.48;8.45;;;;;;;;;;5125184;27;20050;-67
2023/06/21 09:30:00;;;;;;;11.75;8.50;;;;;;;;;;5153298;27;20141;-67
2023/06/21 09:32:27;;;;;;;11.73;7.20;;;;;;;;;;5119917;27;20492;-79
2023/06/21 09:34:53;;;;;;;12.13;8.00;;;;;;;;;;5135707;27;20049;-67
2023/06/21 09:37:31;;;;;;;11.25;7.60;;;;;;;;;;5151188;27;20074;-67
2023/06/21 09:39:58;;;;;;;10.15;7.20;;;;;;;;;;5148103;27;20421;-67
2023/06/21 09:42:28;;;;;;;11.80;7.72;;;;;;;;;;5138812;27;20038;-68
2023/06/21 09:44:55;;;;;;;9.90;6.85;;;;;;;;;;5146536;27;20038;-67
2023/06/21 09:47:21;;;;;;;9.00;6.07;;;;;;;;;;5144853;27;20047;-67
2023/06/21 09:49:48;;;;;;;8.10;5.53;;;;;;;;;;5127756;27;20065;-67
2023/06/21 09:52:14;;;;;;;12.13;7.18;;;;;;;;;;5163902;27;20114;-67
2023/06/21 09:54:44;;;;;;;8.45;6.25;;;;;;;;;;5139866;27;20038;-67
2023/06/21 09:57:10;;;;;;;9.73;6.65;;;;;;;;;;5128453;27;20519;-67
2023/06/21 09:59:37;;;;;;;9.20;5.85;;;;;;;;;;5130161;27;20076;-67
2023/06/21 10:02:04;;;;;;;12.25;6.15;;;;;;;;;;5116651;27;20104;-67
2023/06/21 10:04:38;;;;;;;8.45;5.65;;;;;;;;;;5147136;27;20073;-68
2023/06/21 10:07:05;;;;;;;8.57;6.05;;;;;;;;;;5156394;27;20513;-68
2023/06/21 10:09:36;;;;;;;8.65;6.05;;;;;;;;;;5138065;27;20043;-67
2023/06/21 10:12:03;;;;;;;10.70;5.75;;;;;;;;;;5130688;27;20057;-69
2023/06/21 10:14:30;;;;;;;9.48;6.55;;;;;;;;;;5143357;27;20039;-67
2023/06/21 10:16:56;;;;;;;10.18;6.68;;;;;;;;;;5125565;27;20065;-67
2023/06/21 10:19:24;;;;;;;9.40;7.05;;;;;;;;;;5134346;27;20057;-68
2023/06/21 10:21:51;;;;;;;11.05;6.75;;;;;;;;;;5156277;27;20039;-67
2023/06/21 10:24:18;;;;;;;8.23;5.35;;;;;;;;;;5137682;27;20450;-68
2023/06/21 10:26:45;;;;;;;8.95;6.03;;;;;;;;;;5154112;27;20047;-68
2023/06/21 10:29:13;;;;;;;11.50;6.85;;;;;;;;;;5155659;27;20049;-68
2023/06/21 10:31:41;;;;;;;10.63;7.93;;;;;;;;;;5153089;27;20038;-67
2023/06/21 10:34:09;;;;;;;10.90;6.57;;;;;;;;;;5151645;27;20396;-67
2023/06/21 10:36:36;;;;;;;9.05;6.30;;;;;;;;;;5130622;27;20050;-68
2023/06/21 10:39:06;;;;;;;10.63;5.97;;;;;;;;;;5155775;27;20125;-67
2023/06/21 10:41:32;;;;;;;10.52;8.25;;;;;;;;;;5151101;27;20035;-67
2023/06/21 10:43:59;;;;;;;13.27;8.00;;;;;;;;;;5117831;27;20039;-67
2023/06/21 10:46:25;;;;;;;10.02;7.18;;;;;;;;;;5151445;27;20565;-67
2023/06/21 10:48:51;;;;;;;10.95;7.63;;;;;;;;;;5153358;27;20110;-67
2023/06/21 10:51:18;;;;;;;12.02;6.93;;;;;;;;;;5136011;27;20054;-67
2023/06/21 10:53:45;;;;;;;10.85;8.48;;;;;;;;;;5136171;27;20211;-67
2023/06/21 10:56:16;;;;;;;12.82;8.77;;;;;;;;;;5152197;27;20105;-67
2023/06/21 10:58:42;;;;;;;11.45;8.40;;;;;;;;;;5146380;27;20501;-67
2023/06/21 11:01:08;;;;;;;12.15;9.02;;;;;;;;;;5101222;27;20042;-67
2023/06/21 11:03:35;;;;;;;11.85;9.88;;;;;;;;;;5152435;27;20058;-67
2023/06/21 11:06:20;;;;;;;13.82;11.85;;;;;;;;;;5153562;27;20060;-67
2023/06/21 11:08:46;;;;;;;15.20;12.48;;;;;;;;;;5135918;27;20092;-67
2023/06/21 11:11:27;;;;;;;17.63;14.68;;;;;;;;;;5152200;27;20493;-67
2023/06/21 11:13:53;;;;;;;20.63;14.25;;;;;;;;;;5153560;27;20130;-67
2023/06/21 11:16:20;;;;;;;13.95;12.13;;;;;;;;;;5124243;27;20046;-67
2023/06/21 11:18:55;;;;;;;16.23;14.45;;;;;;;;;;5126060;27;20073;-67
2023/06/21 11:21:40;;;;;;;15.05;13.40;;;;;;;;;;5139943;27;20039;-67
2023/06/21 11:24:07;;;;;;;15.30;13.70;;;;;;;;;;5122593;27;20494;-67
2023/06/21 11:27:01;;;;;;;16.13;13.55;;;;;;;;;;5143365;27;20070;-67
2023/06/21 11:29:39;;;;;;;14.93;12.75;;;;;;;;;;5139472;27;20066;-67
2023/06/21 11:32:15;;;;;;;16.10;13.57;;;;;;;;;;5140091;27;20040;-67
2023/06/21 11:34:56;;;;;;;13.70;11.38;;;;;;;;;;5154834;27;20171;-67
2023/06/21 11:37:35;;;;;;;13.98;11.73;;;;;;;;;;5126773;27;20043;-67
2023/06/21 11:40:02;;;;;;;11.65;9.90;;;;;;;;;;5128925;27;20114;-67
2023/06/21 11:42:34;;;;;;;14.82;8.52;;;;;;;;;;5153689;27;20429;-67
2023/06/21 11:45:20;;;;;;;9.07;7.95;;;;;;;;;;5151290;27;20160;-67
2023/06/21 11:47:59;;;;;;;42.08;17.08;;;;;;;;;;5118203;27;20369;-67
2023/06/21 11:50:42;;;;;;;13.63;9.63;;;;;;;;;;5143336;27;20043;-67
2023/06/21 11:53:20;;;;;;;10.53;7.27;;;;;;;;;;5147934;27;20042;-67
2023/06/21 11:55:47;;;;;;;9.52;6.68;;;;;;;;;;5133725;27;20304;-68
2023/06/21 11:58:13;;;;;;;7.80;6.13;;;;;;;;;;5138102;27;20103;-66
2023/06/21 12:00:40;;;;;;;10.23;7.88;;;;;;;;;;5126326;27;20053;-65
2023/06/21 12:03:06;;;;;;;10.38;7.20;;;;;;;;;;5153090;27;20130;-66
2023/06/21 12:05:52;;;;;;;9.57;6.25;;;;;;;;;;5124861;27;20053;-65
2023/06/21 12:08:20;;;;;;;8.13;6.22;;;;;;;;;;5130236;27;20396;-66
2023/06/21 12:10:47;;;;;;;9.38;7.70;;;;;;;;;;5150624;27;20076;-66
2023/06/21 12:13:14;;;;;;;9.02;7.53;;;;;;;;;;5126388;27;20088;-66
2023/06/21 12:15:56;;;;;;;13.30;9.07;;;;;;;;;;5134975;27;20465;-66
2023/06/21 12:18:23;;;;;;;11.85;9.02;;;;;;;;;;5134900;27;20122;-66
2023/06/21 12:20:50;;;;;;;12.15;9.30;;;;;;;;;;5151263;27;20109;-66
2023/06/21 12:23:17;;;;;;;12.95;10.70;;;;;;;;;;5154183;27;20035;-66
2023/06/21 12:25:43;;;;;;;13.88;10.23;;;;;;;;;;5130243;27;20049;-66
2023/06/21 12:28:11;;;;;;;13.70;9.70;;;;;;;;;;5154006;27;20058;-65
2023/06/21 12:30:56;;;;;;;10.88;8.85;;;;;;;;;;5133909;27;20129;-66
2023/06/21 12:33:26;;;;;;;13.52;9.43;;;;;;;;;;5142524;27;20046;-65
2023/06/21 12:35:53;;;;;;;14.70;9.77;;;;;;;;;;5123974;27;20095;-66
2023/06/21 12:38:19;;;;;;;13.73;10.07;;;;;;;;;;5146985;27;20048;-66
2023/06/21 12:41:01;;;;;;;16.70;10.23;;;;;;;;;;5133884;27;20095;-66
2023/06/21 12:43:37;;;;;;;12.32;8.65;;;;;;;;;;5145948;27;20367;-65
2023/06/21 12:46:07;;;;;;;13.20;9.32;;;;;;;;;;5152816;27;20367;-66
2023/06/21 12:48:34;;;;;;;13.15;8.88;;;;;;;;;;5146624;27;20506;-66
2023/06/21 12:51:00;;;;;;;14.85;10.07;;;;;;;;;;5145547;27;20438;-65
2023/06/21 12:53:28;;;;;;;13.93;8.95;;;;;;;;;;5145449;27;20118;-66
2023/06/21 12:55:56;;;;;;;10.50;7.85;;;;;;;;;;5122475;27;20401;-66
2023/06/21 12:58:22;;;;;;;14.30;9.35;;;;;;;;;;5128548;27;20104;-66
2023/06/21 13:00:48;;;;;;;12.85;8.00;;;;;;;;;;5143214;27;20104;-66
2023/06/21 13:03:15;;;;;;;14.68;8.30;;;;;;;;;;5122646;27;20130;-67
2023/06/21 13:05:42;;;;;;;13.00;8.52;;;;;;;;;;5140381;27;20043;-67
2023/06/21 13:08:08;;;;;;;11.32;7.85;;;;;;;;;;5123137;27;20503;-67
2023/06/21 13:10:34;;;;;;;12.32;7.45;;;;;;;;;;5125079;27;20088;-67
2023/06/21 13:13:00;;;;;;;11.27;7.45;;;;;;;;;;5134161;27;20445;-67
2023/06/21 13:15:26;;;;;;;11.77;6.72;;;;;;;;;;5136937;27;20035;-67
2023/06/21 13:17:56;;;;;;;10.45;7.32;;;;;;;;;;5140635;27;20202;-67
2023/06/21 13:20:23;;;;;;;11.45;6.82;;;;;;;;;;5137541;27;20054;-67
2023/06/21 13:22:49;;;;;;;11.98;6.07;;;;;;;;;;5120249;27;20046;-67
2023/06/21 13:25:15;;;;;;;8.73;5.40;;;;;;;;;;5139960;27;20126;-67
2023/06/21 13:27:42;;;;;;;9.52;5.30;;;;;;;;;;5117481;27;20504;-68
2023/06/21 13:30:09;;;;;;;10.73;6.15;;;;;;;;;;5124472;27;20043;-68
2023/06/21 13:32:38;;;;;;;9.68;5.85;;;;;;;;;;5138406;27;20117;-67
2023/06/21 13:35:05;;;;;;;9.10;5.75;;;;;;;;;;5136390;27;20041;-68
2023/06/21 13:37:31;;;;;;;8.52;5.90;;;;;;;;;;5137886;27;20035;-67
2023/06/21 13:39:58;;;;;;;10.63;6.32;;;;;;;;;;5146199;27;20082;-68
2023/06/21 13:42:24;;;;;;;6.63;4.80;;;;;;;;;;5146282;27;20102;-68
2023/06/21 13:44:50;;;;;;;8.27;5.57;;;;;;;;;;5149805;27;20038;-68
2023/06/21 13:47:16;;;;;;;7.25;4.90;;;;;;;;;;5153670;27;20138;-67
2023/06/21 13:49:48;;;;;;;11.55;6.40;;;;;;;;;;5121545;27;20042;-67
2023/06/21 13:52:15;;;;;;;8.77;5.32;;;;;;;;;;5127990;27;20205;-67
2023/06/21 13:54:41;;;;;;;9.57;5.70;;;;;;;;;;5143782;27;20050;-67
2023/06/21 13:57:14;;;;;;;11.05;5.18;;;;;;;;;;5137156;27;20382;-67
2023/06/21 13:59:41;;;;;;;6.60;3.58;;;;;;;;;;5113450;27;20051;-67
2023/06/21 14:02:08;;;;;;;8.55;4.53;;;;;;;;;;5148289;27;20039;-67
2023/06/21 14:04:35;;;;;;;7.60;4.80;;;;;;;;;;5127136;27;20063;-66
2023/06/21 14:07:01;;;;;;;6.90;4.10;;;;;;;;;;5111226;27;20181;-68
2023/06/21 14:09:27;;;;;;;10.60;4.78;;;;;;;;;;5124390;27;20158;-71
2023/06/21 14:11:59;;;;;;;7.10;5.03;;;;;;;;;;5148088;27;20039;-69
2023/06/21 14:14:25;;;;;;;8.02;4.97;;;;;;;;;;5131155;27;20138;-70
2023/06/21 14:16:51;;;;;;;9.40;5.50;;;;;;;;;;5109615;27;20039;-66
2023/06/21 14:19:17;;;;;;;7.95;5.38;;;;;;;;;;5141168;27;20390;-67
2023/06/21 14:21:44;;;;;;;9.07;5.30;;;;;;;;;;5147283;27;20130;-67
2023/06/21 14:24:10;;;;;;;9.25;4.05;;;;;;;;;;5116050;27;20039;-68
2023/06/21 14:26:37;;;;;;;7.65;4.53;;;;;;;;;;5140567;27;20510;-67